• Join FlightAware (Why Join?)
  • Login
  • US Flag 
04:02PM EST


 

Airport Tracker/Info


-or-


 

Live Flight TrackerFlight Track Log ✈ SWA2702 ✈ 15-May-2013 ✈ KSNA - KSFO

Flight Track Log - Related Links

Times and Time Zones

All times are in EDT time to prevent confusion due to time zone crossing. See the SWA2702 flight status page for this flight to view local times or setup timezone preferences in your user account.

Time Position Orientation Groundspeed Altitude Reporting Facility
EDT Latitude Longitude Course Direction KTS MPH feet Rate Location/Type
11:09AM 33.6514 -117.8831 218° Southwest 165 190 1,600  Level Los Angeles Center
11:10AM 33.6333 -117.9000 218° Southwest 158 182 2,600 1,355 Climbing Southern California TRACON
11:10AM 33.6108 -117.9000 180° South 155 178 3,000 725 Climbing Los Angeles Center
11:11AM 33.5719 -117.9069 188° South 164 189 3,700 968 Climbing Los Angeles Center
11:12AM 33.4947 -117.9600 210° Southwest 237 273 5,000 1,728 Climbing Los Angeles Center
11:13AM 33.4144 -118.0183 211° Southwest 268 308 7,300 3,000 Climbing Los Angeles Center
11:14AM 33.3636 -118.0878 229° Southwest 297 342 11,200 3,532 Climbing Los Angeles Center
11:15AM 33.3672 -118.1942 272° West 318 366 14,600 2,468 Climbing Los Angeles Center
11:16AM 33.3714 -118.3056 273° West 329 379 16,300 2,256 Climbing Los Angeles Center
11:17AM 33.4311 -118.3986 308° West 356 410 19,300 2,880 Climbing Los Angeles Center
11:18AM 33.5039 -118.4892 314° West 372 428 22,300 2,806 Climbing Los Angeles Center
11:19AM 33.5792 -118.5861 313° West 389 448 25,100 2,516 Climbing Los Angeles Center
11:20AM 33.6586 -118.6850 314° West 404 465 27,500 2,371 Climbing Los Angeles Center
11:22AM 33.7564 -118.8081 314° West 419 482 30,000 2,226 Climbing Los Angeles Center
11:23AM 33.8394 -118.9139 313° West 433 498 32,100 2,177 Climbing Los Angeles Center
11:24AM 33.9222 -119.0186 314° West 431 496 34,500 2,129 Climbing Los Angeles Center
11:25AM 34.0025 -119.1225 313° West 426 490 36,500 1,776 Climbing Los Angeles Center
11:26AM 34.0822 -119.2233 314° West 418 481 38,200 1,536 Climbing Los Angeles Center
11:27AM 34.1600 -119.3239 313° West 413 475 39,700 871 Climbing Los Angeles Center
11:28AM 34.2544 -119.4450 313° West 414 476 40,000 145 Climbing Los Angeles Center
11:29AM 34.3328 -119.5453 313° West 411 473 40,000  Level Los Angeles Center
11:30AM 34.4183 -119.6367 319° Northwest 410 472 40,000  Level Los Angeles Center
11:31AM 34.5022 -119.7306 317° Northwest 411 473 40,000  Level Los Angeles Center
11:32AM 34.5864 -119.8231 318° Northwest 410 472 40,000  Level Los Angeles Center
11:33AM 34.6753 -119.9189 318° Northwest 411 473 40,000  Level Los Angeles Center
11:34AM 34.7594 -120.0133 317° Northwest 414 476 40,000  Level Los Angeles Center
11:35AM 34.8544 -120.1197 317° Northwest 415 478 40,000  Level Los Angeles Center
11:36AM 34.9383 -120.2136 317° Northwest 415 478 40,000  Level Los Angeles Center
11:37AM 35.0233 -120.3097 317° Northwest 419 482 40,000  Level Los Angeles Center
11:38AM 35.1247 -120.4231 318° Northwest 414 476 40,000  Level Los Angeles Center
11:39AM 35.2092 -120.5200 317° Northwest 420 483 40,000  Level Los Angeles Center
11:40AM 35.2939 -120.6169 317° Northwest 420 483 40,000  Level Los Angeles Center
11:41AM 35.3794 -120.7133 317° Northwest 420 483 40,000  Level Los Angeles Center
11:42AM 35.4731 -120.7992 323° Northwest 422 486 40,000  Level Los Angeles Center
11:43AM 35.5875 -120.9033 324° Northwest 427 491 40,000 -290 Level Los Angeles Center
11:44AM 35.6797 -120.9858 324° Northwest 415 478 39,400 -774 Descending Los Angeles Center
11:45AM 35.7736 -121.0697 324° Northwest 415 478 38,400 -968 Descending Los Angeles Center
11:46AM 35.8628 -121.1514 323° Northwest 405 466 37,400 -1,091 Descending Los Angeles Center
11:48AM 35.9719 -121.2508 324° Northwest 405 466 36,000 -1,832 Descending Oakland Center
11:49AM 36.0633 -121.3350 323° Northwest 406 467 33,400 -2,244 Descending Oakland Center
11:50AM 36.1536 -121.4172 324° Northwest 407 468 31,400 -1,935 Descending Oakland Center
11:51AM 36.2408 -121.4958 324° Northwest 397 457 29,400 -2,098 Descending Oakland Center
11:52AM 36.3383 -121.5869 323° Northwest 377 434 27,100 -2,049 Descending Oakland Center
11:53AM 36.4178 -121.6603 323° Northwest 366 421 25,200 -1,805 Descending Oakland Center
11:54AM 36.4947 -121.7317 323° Northwest 356 410 23,400 -1,895 Descending Oakland Center
11:54AM 36.5167 -121.7500 326° Northwest 343 395 22,800 -1,826 Descending Northern Cal TRACON
11:55AM 36.5833 -121.8167 321° Northwest 329 379 21,300 -1,500 Descending Northern Cal TRACON
11:56AM 36.6667 -121.8833 327° Northwest 329 379 19,800 -1,400 Descending Northern Cal TRACON
11:57AM 36.7333 -121.9500 321° Northwest 327 376 18,500 -1,556 Descending Northern Cal TRACON
11:58AM 36.8000 -121.9833 338° Northwest 327 376 17,000 -1,579 Descending Northern Cal TRACON
11:59AM 36.8833 -122.0000 351° North 321 369 15,500 -1,654 Descending Northern Cal TRACON
12:00PM 36.9883 -122.0264 349° North 319 367 13,500 -1,734 Descending Oakland Center
12:01PM 37.0703 -122.0503 347° North 308 354 11,800 -1,561 Descending Oakland Center
12:02PM 37.1536 -122.0714 349° North 302 348 10,300 -927 Descending Oakland Center
12:03PM 37.2108 -122.1097 332° Northwest 263 303 9,900 -146 Descending Oakland Center
12:04PM 37.2272 -122.1844 285° West 237 273 10,000 -341 Climbing Oakland Center
12:05PM 37.2581 -122.2519 300° West 236 272 9,200 -829 Descending Oakland Center
12:06PM 37.3153 -122.2986 327° Northwest 240 276 8,300 -1,024 Descending Oakland Center
12:07PM 37.3689 -122.3408 328° Northwest 232 267 7,100 -1,073 Descending Oakland Center
12:08PM 37.4086 -122.3031 37° Northeast 251 289 6,100 -878 Descending Oakland Center
12:09PM 37.4286 -122.2247 72° East 246 283 5,300 -738 Descending Oakland Center
12:10PM 37.4678 -122.1403 60° Northeast 237 273 4,600 -683 Descending Oakland Center
12:11PM 37.5139 -122.1442 356° North 195 224 3,900 -488 Descending Oakland Center
12:12PM 37.5456 -122.1789 319° Northwest 186 214 3,600 -949 Descending Oakland Center
12:14PM 37.5833 -122.2833 295° West 153 176 1,400 -1,067 Descending Northern Cal TRACON
12:15PM 37.6000 -122.3333 293° West 131 151 700 -636 Descending Northern Cal TRACON